sensor_id;sensor_type;location;lat;lon;timestamp;P1;durP1;ratioP1;P2;durP2;ratioP2
16579;SDS011;8402;51.466;6.806;2024-01-30T00:00:43;10.30;;;5.37;;
16579;SDS011;8402;51.466;6.806;2024-01-30T00:03:16;12.53;;;5.80;;
16579;SDS011;8402;51.466;6.806;2024-01-30T00:05:46;9.43;;;5.73;;
16579;SDS011;8402;51.466;6.806;2024-01-30T00:08:15;9.30;;;6.07;;
16579;SDS011;8402;51.466;6.806;2024-01-30T00:10:45;10.80;;;6.03;;
16579;SDS011;8402;51.466;6.806;2024-01-30T00:13:15;10.03;;;6.23;;
16579;SDS011;8402;51.466;6.806;2024-01-30T00:15:46;11.67;;;5.63;;
16579;SDS011;8402;51.466;6.806;2024-01-30T00:18:19;12.20;;;6.13;;
16579;SDS011;8402;51.466;6.806;2024-01-30T00:20:49;11.87;;;6.10;;
16579;SDS011;8402;51.466;6.806;2024-01-30T00:23:19;11.37;;;6.20;;
16579;SDS011;8402;51.466;6.806;2024-01-30T00:25:49;11.13;;;5.63;;
16579;SDS011;8402;51.466;6.806;2024-01-30T00:28:19;11.73;;;5.60;;
16579;SDS011;8402;51.466;6.806;2024-01-30T00:30:49;12.03;;;5.63;;
16579;SDS011;8402;51.466;6.806;2024-01-30T00:33:22;11.43;;;5.93;;
16579;SDS011;8402;51.466;6.806;2024-01-30T00:35:52;10.87;;;6.53;;
16579;SDS011;8402;51.466;6.806;2024-01-30T00:38:22;10.50;;;6.27;;
16579;SDS011;8402;51.466;6.806;2024-01-30T00:40:52;12.07;;;6.53;;
16579;SDS011;8402;51.466;6.806;2024-01-30T00:43:22;13.07;;;6.07;;
16579;SDS011;8402;51.466;6.806;2024-01-30T00:45:52;12.90;;;6.70;;
16579;SDS011;8402;51.466;6.806;2024-01-30T00:48:24;12.13;;;5.83;;
16579;SDS011;8402;51.466;6.806;2024-01-30T00:50:54;11.13;;;5.60;;
16579;SDS011;8402;51.466;6.806;2024-01-30T00:53:25;10.73;;;6.20;;
16579;SDS011;8402;51.466;6.806;2024-01-30T00:55:55;13.27;;;6.20;;
16579;SDS011;8402;51.466;6.806;2024-01-30T00:58:25;10.40;;;6.03;;
16579;SDS011;8402;51.466;6.806;2024-01-30T01:00:55;9.93;;;5.40;;
16579;SDS011;8402;51.466;6.806;2024-01-30T01:03:27;11.90;;;6.00;;
16579;SDS011;8402;51.466;6.806;2024-01-30T01:05:57;14.57;;;5.70;;
16579;SDS011;8402;51.466;6.806;2024-01-30T01:08:27;9.37;;;5.03;;
16579;SDS011;8402;51.466;6.806;2024-01-30T01:10:57;9.60;;;5.43;;
16579;SDS011;8402;51.466;6.806;2024-01-30T01:13:29;10.50;;;5.70;;
16579;SDS011;8402;51.466;6.806;2024-01-30T01:15:58;16.90;;;6.43;;
16579;SDS011;8402;51.466;6.806;2024-01-30T01:18:31;12.83;;;6.67;;
16579;SDS011;8402;51.466;6.806;2024-01-30T01:21:01;11.83;;;5.67;;
16579;SDS011;8402;51.466;6.806;2024-01-30T01:23:31;14.50;;;6.80;;
16579;SDS011;8402;51.466;6.806;2024-01-30T01:26:01;11.67;;;6.30;;
16579;SDS011;8402;51.466;6.806;2024-01-30T01:28:32;11.97;;;7.03;;
16579;SDS011;8402;51.466;6.806;2024-01-30T01:31:02;13.77;;;6.57;;
16579;SDS011;8402;51.466;6.806;2024-01-30T01:33:35;13.30;;;6.83;;
16579;SDS011;8402;51.466;6.806;2024-01-30T01:36:05;12.87;;;6.33;;
16579;SDS011;8402;51.466;6.806;2024-01-30T01:38:35;12.27;;;6.17;;
16579;SDS011;8402;51.466;6.806;2024-01-30T01:41:05;10.67;;;6.00;;
16579;SDS011;8402;51.466;6.806;2024-01-30T01:43:35;12.27;;;6.57;;
16579;SDS011;8402;51.466;6.806;2024-01-30T01:46:05;13.53;;;6.43;;
16579;SDS011;8402;51.466;6.806;2024-01-30T01:48:38;12.63;;;6.70;;
16579;SDS011;8402;51.466;6.806;2024-01-30T01:51:10;11.40;;;6.20;;
16579;SDS011;8402;51.466;6.806;2024-01-30T01:53:40;12.67;;;6.37;;
16579;SDS011;8402;51.466;6.806;2024-01-30T01:56:10;12.70;;;6.03;;
16579;SDS011;8402;51.466;6.806;2024-01-30T01:58:40;17.30;;;6.00;;
16579;SDS011;8402;51.466;6.806;2024-01-30T02:01:11;13.70;;;6.97;;
16579;SDS011;8402;51.466;6.806;2024-01-30T02:03:45;15.47;;;6.60;;
16579;SDS011;8402;51.466;6.806;2024-01-30T02:06:16;11.57;;;6.70;;
16579;SDS011;8402;51.466;6.806;2024-01-30T02:08:46;12.33;;;6.93;;
16579;SDS011;8402;51.466;6.806;2024-01-30T02:11:16;13.17;;;6.53;;
16579;SDS011;8402;51.466;6.806;2024-01-30T02:13:46;14.63;;;6.87;;
16579;SDS011;8402;51.466;6.806;2024-01-30T02:16:15;13.30;;;6.87;;
16579;SDS011;8402;51.466;6.806;2024-01-30T02:18:49;14.07;;;6.53;;
16579;SDS011;8402;51.466;6.806;2024-01-30T02:21:21;14.37;;;6.43;;
16579;SDS011;8402;51.466;6.806;2024-01-30T02:23:52;13.93;;;6.30;;
16579;SDS011;8402;51.466;6.806;2024-01-30T02:26:24;13.80;;;6.17;;
16579;SDS011;8402;51.466;6.806;2024-01-30T02:28:53;15.67;;;6.33;;
16579;SDS011;8402;51.466;6.806;2024-01-30T02:31:24;15.63;;;6.53;;
16579;SDS011;8402;51.466;6.806;2024-01-30T02:33:54;13.67;;;6.70;;
16579;SDS011;8402;51.466;6.806;2024-01-30T02:36:27;14.07;;;6.47;;
16579;SDS011;8402;51.466;6.806;2024-01-30T02:38:57;11.17;;;6.47;;
16579;SDS011;8402;51.466;6.806;2024-01-30T02:41:30;12.70;;;6.90;;
16579;SDS011;8402;51.466;6.806;2024-01-30T02:44:00;10.70;;;5.80;;
16579;SDS011;8402;51.466;6.806;2024-01-30T02:46:30;12.17;;;6.63;;
16579;SDS011;8402;51.466;6.806;2024-01-30T02:48:59;14.23;;;6.60;;
16579;SDS011;8402;51.466;6.806;2024-01-30T02:51:32;11.73;;;6.20;;
16579;SDS011;8402;51.466;6.806;2024-01-30T02:54:02;12.70;;;6.43;;
16579;SDS011;8402;51.466;6.806;2024-01-30T02:56:32;13.00;;;6.27;;
16579;SDS011;8402;51.466;6.806;2024-01-30T02:59:02;14.47;;;6.03;;
16579;SDS011;8402;51.466;6.806;2024-01-30T03:01:31;10.57;;;6.00;;
16579;SDS011;8402;51.466;6.806;2024-01-30T03:04:01;14.60;;;6.60;;
16579;SDS011;8402;51.466;6.806;2024-01-30T03:06:34;9.97;;;5.80;;
16579;SDS011;8402;51.466;6.806;2024-01-30T03:09:04;16.40;;;6.23;;
16579;SDS011;8402;51.466;6.806;2024-01-30T03:11:35;12.07;;;6.07;;
16579;SDS011;8402;51.466;6.806;2024-01-30T03:14:05;13.03;;;5.93;;
16579;SDS011;8402;51.466;6.806;2024-01-30T03:16:37;14.30;;;6.20;;
16579;SDS011;8402;51.466;6.806;2024-01-30T03:19:07;10.73;;;6.10;;
16579;SDS011;8402;51.466;6.806;2024-01-30T03:21:40;12.80;;;5.90;;
16579;SDS011;8402;51.466;6.806;2024-01-30T03:24:10;10.33;;;6.00;;
16579;SDS011;8402;51.466;6.806;2024-01-30T03:26:40;11.83;;;6.63;;
16579;SDS011;8402;51.466;6.806;2024-01-30T03:29:09;8.87;;;5.47;;
16579;SDS011;8402;51.466;6.806;2024-01-30T03:31:39;13.60;;;6.20;;
16579;SDS011;8402;51.466;6.806;2024-01-30T03:34:09;11.57;;;5.90;;
16579;SDS011;8402;51.466;6.806;2024-01-30T03:36:42;15.10;;;6.13;;
16579;SDS011;8402;51.466;6.806;2024-01-30T03:39:12;11.47;;;5.80;;
16579;SDS011;8402;51.466;6.806;2024-01-30T03:41:42;12.13;;;6.20;;
16579;SDS011;8402;51.466;6.806;2024-01-30T03:44:12;10.73;;;5.80;;
16579;SDS011;8402;51.466;6.806;2024-01-30T03:46:42;11.53;;;6.33;;
16579;SDS011;8402;51.466;6.806;2024-01-30T03:49:12;11.30;;;5.60;;
16579;SDS011;8402;51.466;6.806;2024-01-30T03:51:44;12.77;;;5.90;;
16579;SDS011;8402;51.466;6.806;2024-01-30T03:54:15;9.07;;;5.53;;
16579;SDS011;8402;51.466;6.806;2024-01-30T03:56:45;15.30;;;6.37;;
16579;SDS011;8402;51.466;6.806;2024-01-30T03:59:15;13.60;;;5.70;;
16579;SDS011;8402;51.466;6.806;2024-01-30T04:01:48;11.67;;;6.30;;
16579;SDS011;8402;51.466;6.806;2024-01-30T04:04:19;12.53;;;6.63;;
16579;SDS011;8402;51.466;6.806;2024-01-30T04:06:52;12.77;;;5.63;;
16579;SDS011;8402;51.466;6.806;2024-01-30T04:09:22;10.43;;;6.10;;
16579;SDS011;8402;51.466;6.806;2024-01-30T04:11:53;13.00;;;6.00;;
16579;SDS011;8402;51.466;6.806;2024-01-30T04:14:23;14.53;;;6.10;;
16579;SDS011;8402;51.466;6.806;2024-01-30T04:16:52;14.53;;;5.87;;
16579;SDS011;8402;51.466;6.806;2024-01-30T04:19:22;12.10;;;5.83;;
16579;SDS011;8402;51.466;6.806;2024-01-30T04:21:55;12.83;;;5.50;;
16579;SDS011;8402;51.466;6.806;2024-01-30T04:24:25;10.67;;;5.90;;
16579;SDS011;8402;51.466;6.806;2024-01-30T04:26:55;10.97;;;6.13;;
16579;SDS011;8402;51.466;6.806;2024-01-30T04:29:27;11.37;;;5.80;;
16579;SDS011;8402;51.466;6.806;2024-01-30T04:31:59;11.87;;;5.87;;
16579;SDS011;8402;51.466;6.806;2024-01-30T04:34:29;10.30;;;5.80;;
16579;SDS011;8402;51.466;6.806;2024-01-30T04:37:01;13.90;;;5.47;;
16579;SDS011;8402;51.466;6.806;2024-01-30T04:39:32;9.93;;;5.37;;
16579;SDS011;8402;51.466;6.806;2024-01-30T04:42:04;12.70;;;5.80;;
16579;SDS011;8402;51.466;6.806;2024-01-30T04:44:35;12.40;;;5.60;;
16579;SDS011;8402;51.466;6.806;2024-01-30T04:47:05;8.87;;;6.00;;
16579;SDS011;8402;51.466;6.806;2024-01-30T04:49:36;12.03;;;6.20;;
16579;SDS011;8402;51.466;6.806;2024-01-30T04:52:10;11.20;;;5.77;;
16579;SDS011;8402;51.466;6.806;2024-01-30T04:54:40;11.97;;;5.93;;
16579;SDS011;8402;51.466;6.806;2024-01-30T04:57:10;11.37;;;6.23;;
16579;SDS011;8402;51.466;6.806;2024-01-30T04:59:40;11.00;;;5.70;;
16579;SDS011;8402;51.466;6.806;2024-01-30T05:02:10;11.00;;;5.90;;
16579;SDS011;8402;51.466;6.806;2024-01-30T05:04:40;13.23;;;5.80;;
16579;SDS011;8402;51.466;6.806;2024-01-30T05:07:13;10.10;;;5.60;;
16579;SDS011;8402;51.466;6.806;2024-01-30T05:09:44;12.17;;;5.77;;
16579;SDS011;8402;51.466;6.806;2024-01-30T05:12:14;12.77;;;5.43;;
16579;SDS011;8402;51.466;6.806;2024-01-30T05:14:44;10.80;;;5.30;;
16579;SDS011;8402;51.466;6.806;2024-01-30T05:17:14;10.73;;;5.57;;
16579;SDS011;8402;51.466;6.806;2024-01-30T05:19:43;10.80;;;6.03;;
16579;SDS011;8402;51.466;6.806;2024-01-30T05:22:16;12.00;;;5.70;;
16579;SDS011;8402;51.466;6.806;2024-01-30T05:24:46;10.60;;;5.70;;
16579;SDS011;8402;51.466;6.806;2024-01-30T05:27:16;12.40;;;5.83;;
16579;SDS011;8402;51.466;6.806;2024-01-30T05:29:46;10.40;;;5.60;;
16579;SDS011;8402;51.466;6.806;2024-01-30T05:32:16;8.83;;;5.10;;
16579;SDS011;8402;51.466;6.806;2024-01-30T05:34:46;10.80;;;6.00;;
16579;SDS011;8402;51.466;6.806;2024-01-30T05:37:19;11.77;;;5.47;;
16579;SDS011;8402;51.466;6.806;2024-01-30T05:39:49;10.57;;;5.50;;
16579;SDS011;8402;51.466;6.806;2024-01-30T05:42:19;10.57;;;5.37;;
16579;SDS011;8402;51.466;6.806;2024-01-30T05:44:49;9.67;;;5.63;;
16579;SDS011;8402;51.466;6.806;2024-01-30T05:47:19;9.67;;;5.37;;
16579;SDS011;8402;51.466;6.806;2024-01-30T05:49:49;13.47;;;5.50;;
16579;SDS011;8402;51.466;6.806;2024-01-30T05:52:22;10.10;;;5.90;;
16579;SDS011;8402;51.466;6.806;2024-01-30T05:54:52;11.33;;;5.37;;
16579;SDS011;8402;51.466;6.806;2024-01-30T05:57:22;15.50;;;6.10;;
16579;SDS011;8402;51.466;6.806;2024-01-30T05:59:52;13.07;;;5.87;;
16579;SDS011;8402;51.466;6.806;2024-01-30T06:02:22;7.73;;;5.10;;
16579;SDS011;8402;51.466;6.806;2024-01-30T06:04:52;9.23;;;4.93;;
16579;SDS011;8402;51.466;6.806;2024-01-30T06:07:24;9.20;;;5.07;;
16579;SDS011;8402;51.466;6.806;2024-01-30T06:09:59;9.23;;;5.13;;
16579;SDS011;8402;51.466;6.806;2024-01-30T06:12:30;10.77;;;5.70;;
16579;SDS011;8402;51.466;6.806;2024-01-30T06:15:00;10.70;;;5.13;;
16579;SDS011;8402;51.466;6.806;2024-01-30T06:17:30;10.80;;;5.67;;
16579;SDS011;8402;51.466;6.806;2024-01-30T06:20:00;11.13;;;5.93;;
16579;SDS011;8402;51.466;6.806;2024-01-30T06:22:33;7.73;;;4.50;;
16579;SDS011;8402;51.466;6.806;2024-01-30T06:25:03;10.30;;;5.70;;
16579;SDS011;8402;51.466;6.806;2024-01-30T06:27:34;14.87;;;5.80;;
16579;SDS011;8402;51.466;6.806;2024-01-30T06:30:04;10.63;;;5.50;;
16579;SDS011;8402;51.466;6.806;2024-01-30T06:32:35;9.03;;;5.37;;
16579;SDS011;8402;51.466;6.806;2024-01-30T06:35:05;8.03;;;4.77;;
16579;SDS011;8402;51.466;6.806;2024-01-30T06:37:39;8.97;;;5.33;;
16579;SDS011;8402;51.466;6.806;2024-01-30T06:40:09;7.87;;;4.80;;
16579;SDS011;8402;51.466;6.806;2024-01-30T06:42:40;9.83;;;5.83;;
16579;SDS011;8402;51.466;6.806;2024-01-30T06:45:10;9.60;;;5.37;;
16579;SDS011;8402;51.466;6.806;2024-01-30T06:47:40;10.13;;;5.83;;
16579;SDS011;8402;51.466;6.806;2024-01-30T06:50:10;12.43;;;5.57;;
16579;SDS011;8402;51.466;6.806;2024-01-30T06:52:42;8.40;;;5.47;;
16579;SDS011;8402;51.466;6.806;2024-01-30T06:55:12;11.43;;;5.40;;
16579;SDS011;8402;51.466;6.806;2024-01-30T06:57:42;11.53;;;5.40;;
16579;SDS011;8402;51.466;6.806;2024-01-30T07:00:14;8.80;;;4.53;;
16579;SDS011;8402;51.466;6.806;2024-01-30T07:02:46;9.80;;;4.97;;
16579;SDS011;8402;51.466;6.806;2024-01-30T07:05:16;10.37;;;5.17;;
16579;SDS011;8402;51.466;6.806;2024-01-30T07:07:51;12.57;;;5.17;;
16579;SDS011;8402;51.466;6.806;2024-01-30T07:10:21;10.50;;;5.23;;
16579;SDS011;8402;51.466;6.806;2024-01-30T07:12:51;8.57;;;5.30;;
16579;SDS011;8402;51.466;6.806;2024-01-30T07:15:21;10.10;;;5.57;;
16579;SDS011;8402;51.466;6.806;2024-01-30T07:17:51;10.20;;;5.37;;
16579;SDS011;8402;51.466;6.806;2024-01-30T07:20:21;11.60;;;5.70;;
16579;SDS011;8402;51.466;6.806;2024-01-30T07:22:54;11.10;;;5.90;;
16579;SDS011;8402;51.466;6.806;2024-01-30T07:25:24;10.33;;;5.67;;
16579;SDS011;8402;51.466;6.806;2024-01-30T07:27:56;12.03;;;5.27;;
16579;SDS011;8402;51.466;6.806;2024-01-30T07:30:26;9.53;;;4.13;;
16579;SDS011;8402;51.466;6.806;2024-01-30T07:32:56;11.30;;;5.80;;
16579;SDS011;8402;51.466;6.806;2024-01-30T07:35:26;9.90;;;5.10;;
16579;SDS011;8402;51.466;6.806;2024-01-30T07:37:59;12.27;;;5.47;;
16579;SDS011;8402;51.466;6.806;2024-01-30T07:40:29;11.47;;;5.90;;
16579;SDS011;8402;51.466;6.806;2024-01-30T07:43:00;10.67;;;5.30;;
16579;SDS011;8402;51.466;6.806;2024-01-30T07:45:30;11.17;;;5.47;;
16579;SDS011;8402;51.466;6.806;2024-01-30T07:48:00;11.77;;;5.80;;
16579;SDS011;8402;51.466;6.806;2024-01-30T07:50:30;13.70;;;5.70;;
16579;SDS011;8402;51.466;6.806;2024-01-30T07:53:03;11.90;;;5.53;;
16579;SDS011;8402;51.466;6.806;2024-01-30T07:55:33;10.13;;;5.33;;
16579;SDS011;8402;51.466;6.806;2024-01-30T07:58:03;12.03;;;5.60;;
16579;SDS011;8402;51.466;6.806;2024-01-30T08:00:33;17.70;;;6.20;;
16579;SDS011;8402;51.466;6.806;2024-01-30T08:03:04;8.23;;;5.23;;
16579;SDS011;8402;51.466;6.806;2024-01-30T08:05:34;11.87;;;5.50;;
16579;SDS011;8402;51.466;6.806;2024-01-30T08:08:08;11.43;;;5.13;;
16579;SDS011;8402;51.466;6.806;2024-01-30T08:10:40;9.73;;;5.47;;
16579;SDS011;8402;51.466;6.806;2024-01-30T08:13:09;10.20;;;5.50;;
16579;SDS011;8402;51.466;6.806;2024-01-30T08:15:39;12.23;;;5.53;;
16579;SDS011;8402;51.466;6.806;2024-01-30T08:18:09;11.50;;;5.37;;
16579;SDS011;8402;51.466;6.806;2024-01-30T08:20:39;15.23;;;6.37;;
16579;SDS011;8402;51.466;6.806;2024-01-30T08:23:12;16.57;;;5.47;;
16579;SDS011;8402;51.466;6.806;2024-01-30T08:25:42;9.50;;;5.87;;
16579;SDS011;8402;51.466;6.806;2024-01-30T08:28:12;9.90;;;5.60;;
16579;SDS011;8402;51.466;6.806;2024-01-30T08:30:44;8.67;;;5.07;;
16579;SDS011;8402;51.466;6.806;2024-01-30T08:33:14;14.37;;;5.50;;
16579;SDS011;8402;51.466;6.806;2024-01-30T08:35:44;10.40;;;5.50;;
16579;SDS011;8402;51.466;6.806;2024-01-30T08:38:17;8.93;;;5.10;;
16579;SDS011;8402;51.466;6.806;2024-01-30T08:40:47;10.03;;;5.33;;
16579;SDS011;8402;51.466;6.806;2024-01-30T08:43:17;11.20;;;5.57;;
16579;SDS011;8402;51.466;6.806;2024-01-30T08:45:47;9.83;;;5.80;;
16579;SDS011;8402;51.466;6.806;2024-01-30T08:48:17;9.10;;;5.20;;
16579;SDS011;8402;51.466;6.806;2024-01-30T08:50:48;11.33;;;5.60;;
16579;SDS011;8402;51.466;6.806;2024-01-30T08:53:20;9.00;;;5.07;;
16579;SDS011;8402;51.466;6.806;2024-01-30T08:55:51;11.80;;;6.10;;
16579;SDS011;8402;51.466;6.806;2024-01-30T08:58:21;10.43;;;5.03;;
16579;SDS011;8402;51.466;6.806;2024-01-30T09:00:51;10.17;;;5.63;;
16579;SDS011;8402;51.466;6.806;2024-01-30T09:03:21;8.77;;;5.13;;
16579;SDS011;8402;51.466;6.806;2024-01-30T09:05:51;10.17;;;5.37;;
16579;SDS011;8402;51.466;6.806;2024-01-30T09:08:23;9.80;;;5.87;;
16579;SDS011;8402;51.466;6.806;2024-01-30T09:10:54;11.93;;;6.07;;
16579;SDS011;8402;51.466;6.806;2024-01-30T09:13:24;14.80;;;6.10;;
16579;SDS011;8402;51.466;6.806;2024-01-30T09:15:54;13.80;;;6.00;;
16579;SDS011;8402;51.466;6.806;2024-01-30T09:18:24;11.83;;;6.30;;
16579;SDS011;8402;51.466;6.806;2024-01-30T09:20:54;11.73;;;5.63;;
16579;SDS011;8402;51.466;6.806;2024-01-30T09:23:26;11.10;;;4.97;;
16579;SDS011;8402;51.466;6.806;2024-01-30T09:25:56;14.87;;;5.90;;
16579;SDS011;8402;51.466;6.806;2024-01-30T09:28:26;9.80;;;5.70;;
16579;SDS011;8402;51.466;6.806;2024-01-30T09:30:56;8.67;;;5.33;;
16579;SDS011;8402;51.466;6.806;2024-01-30T09:33:26;10.03;;;5.67;;
16579;SDS011;8402;51.466;6.806;2024-01-30T09:35:56;10.87;;;5.70;;
16579;SDS011;8402;51.466;6.806;2024-01-30T09:38:29;12.23;;;5.90;;
16579;SDS011;8402;51.466;6.806;2024-01-30T09:40:59;9.47;;;5.47;;
16579;SDS011;8402;51.466;6.806;2024-01-30T09:43:37;11.40;;;5.57;;
16579;SDS011;8402;51.466;6.806;2024-01-30T09:46:09;9.73;;;6.00;;
16579;SDS011;8402;51.466;6.806;2024-01-30T09:48:41;8.67;;;5.57;;
16579;SDS011;8402;51.466;6.806;2024-01-30T09:51:12;9.67;;;5.47;;
16579;SDS011;8402;51.466;6.806;2024-01-30T09:53:46;10.40;;;5.43;;
16579;SDS011;8402;51.466;6.806;2024-01-30T09:56:17;11.67;;;5.63;;
16579;SDS011;8402;51.466;6.806;2024-01-30T09:58:47;13.57;;;5.83;;
16579;SDS011;8402;51.466;6.806;2024-01-30T10:01:17;8.87;;;5.40;;
16579;SDS011;8402;51.466;6.806;2024-01-30T10:03:50;12.57;;;6.50;;
16579;SDS011;8402;51.466;6.806;2024-01-30T10:06:21;10.30;;;5.87;;
16579;SDS011;8402;51.466;6.806;2024-01-30T10:08:56;9.33;;;5.73;;
16579;SDS011;8402;51.466;6.806;2024-01-30T10:11:26;12.90;;;5.90;;
16579;SDS011;8402;51.466;6.806;2024-01-30T10:13:56;12.30;;;6.07;;
16579;SDS011;8402;51.466;6.806;2024-01-30T10:16:26;11.80;;;5.80;;
16579;SDS011;8402;51.466;6.806;2024-01-30T10:18:56;10.70;;;5.90;;
16579;SDS011;8402;51.466;6.806;2024-01-30T10:21:26;8.87;;;5.60;;
16579;SDS011;8402;51.466;6.806;2024-01-30T10:23:59;13.17;;;5.73;;
16579;SDS011;8402;51.466;6.806;2024-01-30T10:26:29;10.97;;;6.03;;
16579;SDS011;8402;51.466;6.806;2024-01-30T10:29:01;12.03;;;5.90;;
16579;SDS011;8402;51.466;6.806;2024-01-30T10:31:30;11.83;;;5.70;;
16579;SDS011;8402;51.466;6.806;2024-01-30T10:34:01;14.90;;;6.50;;
16579;SDS011;8402;51.466;6.806;2024-01-30T10:36:42;11.13;;;5.97;;
16579;SDS011;8402;51.466;6.806;2024-01-30T10:39:21;14.27;;;6.40;;
16579;SDS011;8402;51.466;6.806;2024-01-30T10:41:53;10.87;;;5.73;;
16579;SDS011;8402;51.466;6.806;2024-01-30T10:44:28;13.93;;;6.53;;
16579;SDS011;8402;51.466;6.806;2024-01-30T10:47:03;16.47;;;6.47;;
16579;SDS011;8402;51.466;6.806;2024-01-30T10:49:38;17.73;;;6.60;;
16579;SDS011;8402;51.466;6.806;2024-01-30T10:52:10;15.23;;;6.93;;
16579;SDS011;8402;51.466;6.806;2024-01-30T10:54:46;16.60;;;7.40;;
16579;SDS011;8402;51.466;6.806;2024-01-30T10:57:16;14.80;;;6.63;;
16579;SDS011;8402;51.466;6.806;2024-01-30T10:59:50;18.37;;;7.33;;
16579;SDS011;8402;51.466;6.806;2024-01-30T11:02:21;13.23;;;7.30;;
16579;SDS011;8402;51.466;6.806;2024-01-30T11:04:55;12.57;;;6.53;;
16579;SDS011;8402;51.466;6.806;2024-01-30T11:07:28;13.07;;;6.73;;
16579;SDS011;8402;51.466;6.806;2024-01-30T11:10:04;12.30;;;6.40;;
16579;SDS011;8402;51.466;6.806;2024-01-30T11:12:37;12.47;;;6.93;;
16579;SDS011;8402;51.466;6.806;2024-01-30T11:15:12;14.07;;;8.03;;
16579;SDS011;8402;51.466;6.806;2024-01-30T11:17:43;16.30;;;7.90;;
16579;SDS011;8402;51.466;6.806;2024-01-30T11:20:14;16.07;;;8.03;;
16579;SDS011;8402;51.466;6.806;2024-01-30T11:22:46;15.83;;;7.70;;
16579;SDS011;8402;51.466;6.806;2024-01-30T11:25:20;13.70;;;7.53;;
16579;SDS011;8402;51.466;6.806;2024-01-30T11:27:53;13.97;;;7.37;;
16579;SDS011;8402;51.466;6.806;2024-01-30T11:30:25;14.80;;;7.23;;
16579;SDS011;8402;51.466;6.806;2024-01-30T11:33:03;15.20;;;7.30;;
16579;SDS011;8402;51.466;6.806;2024-01-30T11:35:36;13.67;;;7.00;;
16579;SDS011;8402;51.466;6.806;2024-01-30T11:38:07;16.83;;;6.80;;
16579;SDS011;8402;51.466;6.806;2024-01-30T11:40:40;14.00;;;7.00;;
16579;SDS011;8402;51.466;6.806;2024-01-30T11:43:11;16.07;;;7.93;;
16579;SDS011;8402;51.466;6.806;2024-01-30T11:45:41;16.77;;;8.20;;
16579;SDS011;8402;51.466;6.806;2024-01-30T11:48:11;16.97;;;7.57;;
16579;SDS011;8402;51.466;6.806;2024-01-30T11:50:41;13.83;;;6.73;;
16579;SDS011;8402;51.466;6.806;2024-01-30T11:53:13;17.47;;;7.37;;
16579;SDS011;8402;51.466;6.806;2024-01-30T11:55:51;14.40;;;7.03;;
16579;SDS011;8402;51.466;6.806;2024-01-30T11:58:24;15.03;;;7.43;;
16579;SDS011;8402;51.466;6.806;2024-01-30T12:00:54;14.50;;;6.50;;
16579;SDS011;8402;51.466;6.806;2024-01-30T12:03:25;17.03;;;7.57;;
16579;SDS011;8402;51.466;6.806;2024-01-30T12:05:55;15.33;;;7.13;;
16579;SDS011;8402;51.466;6.806;2024-01-30T12:08:27;12.67;;;7.10;;
16579;SDS011;8402;51.466;6.806;2024-01-30T12:10:59;14.27;;;7.77;;
16579;SDS011;8402;51.466;6.806;2024-01-30T12:13:32;20.17;;;7.77;;
16579;SDS011;8402;51.466;6.806;2024-01-30T12:16:02;15.00;;;6.90;;
16579;SDS011;8402;51.466;6.806;2024-01-30T12:18:33;14.83;;;6.93;;
16579;SDS011;8402;51.466;6.806;2024-01-30T12:21:03;12.30;;;7.30;;
16579;SDS011;8402;51.466;6.806;2024-01-30T12:23:34;13.87;;;6.40;;
16579;SDS011;8402;51.466;6.806;2024-01-30T12:26:07;14.77;;;7.37;;
16579;SDS011;8402;51.466;6.806;2024-01-30T12:28:37;17.47;;;7.00;;
16579;SDS011;8402;51.466;6.806;2024-01-30T12:31:17;14.00;;;7.13;;
16579;SDS011;8402;51.466;6.806;2024-01-30T12:33:48;22.87;;;7.43;;
16579;SDS011;8402;51.466;6.806;2024-01-30T12:36:19;11.17;;;5.90;;
16579;SDS011;8402;51.466;6.806;2024-01-30T12:38:49;16.13;;;6.53;;
16579;SDS011;8402;51.466;6.806;2024-01-30T12:41:22;14.57;;;7.17;;
16579;SDS011;8402;51.466;6.806;2024-01-30T12:43:55;16.13;;;7.00;;
16579;SDS011;8402;51.466;6.806;2024-01-30T12:46:27;16.30;;;7.10;;
16579;SDS011;8402;51.466;6.806;2024-01-30T12:48:58;16.00;;;7.23;;
16579;SDS011;8402;51.466;6.806;2024-01-30T12:51:28;13.53;;;6.83;;
16579;SDS011;8402;51.466;6.806;2024-01-30T12:53:58;12.73;;;6.60;;
16579;SDS011;8402;51.466;6.806;2024-01-30T12:56:30;13.67;;;7.40;;
16579;SDS011;8402;51.466;6.806;2024-01-30T12:59:00;17.27;;;7.17;;
16579;SDS011;8402;51.466;6.806;2024-01-30T13:01:30;23.17;;;8.10;;
16579;SDS011;8402;51.466;6.806;2024-01-30T13:04:00;12.80;;;7.10;;
16579;SDS011;8402;51.466;6.806;2024-01-30T13:06:31;16.53;;;8.07;;
16579;SDS011;8402;51.466;6.806;2024-01-30T13:09:00;22.80;;;7.23;;
16579;SDS011;8402;51.466;6.806;2024-01-30T13:11:35;23.47;;;8.10;;
16579;SDS011;8402;51.466;6.806;2024-01-30T13:14:04;27.70;;;9.67;;
16579;SDS011;8402;51.466;6.806;2024-01-30T13:16:34;17.97;;;7.73;;
16579;SDS011;8402;51.466;6.806;2024-01-30T13:19:04;24.27;;;7.67;;
16579;SDS011;8402;51.466;6.806;2024-01-30T13:21:34;19.73;;;7.63;;
16579;SDS011;8402;51.466;6.806;2024-01-30T13:24:05;14.67;;;6.70;;
16579;SDS011;8402;51.466;6.806;2024-01-30T13:26:38;18.23;;;7.27;;
16579;SDS011;8402;51.466;6.806;2024-01-30T13:29:09;17.30;;;7.60;;
16579;SDS011;8402;51.466;6.806;2024-01-30T13:31:38;13.87;;;7.03;;
16579;SDS011;8402;51.466;6.806;2024-01-30T13:34:10;12.93;;;7.17;;
16579;SDS011;8402;51.466;6.806;2024-01-30T13:36:41;13.50;;;7.10;;
16579;SDS011;8402;51.466;6.806;2024-01-30T13:39:11;15.37;;;7.10;;
16579;SDS011;8402;51.466;6.806;2024-01-30T13:41:44;16.17;;;7.00;;
16579;SDS011;8402;51.466;6.806;2024-01-30T13:44:15;15.60;;;7.30;;
16579;SDS011;8402;51.466;6.806;2024-01-30T13:46:45;16.53;;;6.40;;
16579;SDS011;8402;51.466;6.806;2024-01-30T13:49:15;16.83;;;6.90;;
16579;SDS011;8402;51.466;6.806;2024-01-30T13:51:43;17.00;;;7.23;;
16579;SDS011;8402;51.466;6.806;2024-01-30T13:54:13;16.70;;;6.53;;
16579;SDS011;8402;51.466;6.806;2024-01-30T13:56:45;11.57;;;6.77;;
16579;SDS011;8402;51.466;6.806;2024-01-30T13:59:15;17.97;;;6.67;;
16579;SDS011;8402;51.466;6.806;2024-01-30T14:01:50;21.63;;;6.30;;
16579;SDS011;8402;51.466;6.806;2024-01-30T14:04:21;15.57;;;6.47;;
16579;SDS011;8402;51.466;6.806;2024-01-30T14:06:51;16.00;;;6.10;;
16579;SDS011;8402;51.466;6.806;2024-01-30T14:09:30;16.00;;;6.67;;
16579;SDS011;8402;51.466;6.806;2024-01-30T14:12:03;14.07;;;6.97;;
16579;SDS011;8402;51.466;6.806;2024-01-30T14:14:34;15.57;;;6.13;;
16579;SDS011;8402;51.466;6.806;2024-01-30T14:17:04;15.70;;;6.60;;
16579;SDS011;8402;51.466;6.806;2024-01-30T14:19:35;15.73;;;6.30;;
16579;SDS011;8402;51.466;6.806;2024-01-30T14:22:05;13.43;;;5.77;;
16579;SDS011;8402;51.466;6.806;2024-01-30T14:24:35;15.87;;;6.60;;
16579;SDS011;8402;51.466;6.806;2024-01-30T14:27:08;15.47;;;6.43;;
16579;SDS011;8402;51.466;6.806;2024-01-30T14:29:39;20.57;;;7.40;;
16579;SDS011;8402;51.466;6.806;2024-01-30T14:32:10;23.50;;;7.03;;
16579;SDS011;8402;51.466;6.806;2024-01-30T14:34:40;13.63;;;6.20;;
16579;SDS011;8402;51.466;6.806;2024-01-30T14:37:10;14.90;;;6.27;;
16579;SDS011;8402;51.466;6.806;2024-01-30T14:39:40;18.37;;;7.10;;
16579;SDS011;8402;51.466;6.806;2024-01-30T14:42:14;14.17;;;6.53;;
16579;SDS011;8402;51.466;6.806;2024-01-30T14:44:44;18.87;;;6.30;;
16579;SDS011;8402;51.466;6.806;2024-01-30T14:47:14;16.50;;;7.27;;
16579;SDS011;8402;51.466;6.806;2024-01-30T14:49:44;14.90;;;5.87;;
16579;SDS011;8402;51.466;6.806;2024-01-30T14:52:14;14.10;;;5.70;;
16579;SDS011;8402;51.466;6.806;2024-01-30T14:54:44;8.97;;;4.77;;
16579;SDS011;8402;51.466;6.806;2024-01-30T14:57:16;13.50;;;4.87;;
16579;SDS011;8402;51.466;6.806;2024-01-30T14:59:46;9.50;;;3.57;;
16579;SDS011;8402;51.466;6.806;2024-01-30T15:02:16;9.33;;;4.00;;
16579;SDS011;8402;51.466;6.806;2024-01-30T15:04:46;7.33;;;4.13;;
16579;SDS011;8402;51.466;6.806;2024-01-30T15:07:16;8.03;;;3.20;;
16579;SDS011;8402;51.466;6.806;2024-01-30T15:09:58;9.10;;;3.97;;
16579;SDS011;8402;51.466;6.806;2024-01-30T15:12:32;9.87;;;4.13;;